D/T METAR WX W/DIR W/SPE G/SPE TEMP DEWP
8/12/19 09:50 EGXC 080950Z 24017KT CAVOK 08/04 Q0995 RMK BLU WSW (240°) 19.6mph 8°C 4°C
8/12/19 08:50 EGXC 080850Z 24012KT CAVOK 07/05 Q0995 RMK BLU WSW (240°) 13.8mph 7°C 5°C
8/12/19 07:50 EGXC 080750Z 26016KT CAVOK 09/05 Q0995 RMK BLU W (260°) 18.4mph 9°C 5°C
8/12/19 06:50 EGXC 080650Z 26016KT 9999 -RA BKN040 09/07 Q0994 RMK BLU -RA W (260°) 18.4mph 9°C 7°C
8/12/19 05:50 EGXC 080550Z 25021G32KT 9999 FEW040 10/07 Q0993 RMK BLU WSW (250°) 24.2mph 36.8mph 10°C 7°C
8/12/19 04:50 EGXC 080450Z 23019KT 9999 SCT024 12/10 Q0992 RMK WHT SW (230°) 21.9mph 12°C 10°C
8/12/19 03:50 EGXC 080350Z 22020KT 9999 SCT015 BKN028 11/10 Q0993 RMK WHT SW (220°) 23.0mph 11°C 10°C
8/12/19 02:50 EGXC 080250Z AUTO 22022KT 9999 // BKN015/// SCT031/// 11/09 Q0994 SW (220°) 25.3mph 11°C 9°C
8/12/19 01:50 EGXC 080150Z AUTO 21022G33KT 9999 // BKN011/// BKN020/// 10/09 Q0995 SSW (210°) 25.3mph 38.0mph 10°C 9°C
8/12/19 00:50 EGXC 080050Z 21019KT 5000 RA BKN012 OVC070 10/09 Q0996 RMK GRN RA SSW (210°) 21.9mph 10°C 9°C
7/12/19 23:50 EGXC 072350Z 21018KT 9999 -RA OVC012 10/08 Q0999 RMK GRN -RA SSW (210°) 20.7mph 10°C 8°C
7/12/19 22:50 EGXC 072250Z 20018KT 9999 BKN014 OVC250 09/07 Q1000 RMK GRN SSW (200°) 20.7mph 9°C 7°C
7/12/19 21:50 EGXC 072150Z 22014KT 9999 BKN013 BKN250 09/07 Q1002 RMK GRN SW (220°) 16.1mph 9°C 7°C
7/12/19 20:50 EGXC 072050Z 21013KT 9999 SCT014 BKN250 09/07 Q1003 RMK GRN SSW (210°) 15.0mph 9°C 7°C
7/12/19 19:50 EGXC 071950Z 20011KT 9999 SCT014 BKN250 08/07 Q1005 RMK GRN SSW (200°) 12.7mph 8°C 7°C
7/12/19 18:50 EGXC 071850Z 22014KT 9999 FEW016 SCT070 BKN250 08/06 Q1006 RMK BLU SW (220°) 16.1mph 8°C 6°C
7/12/19 17:50 EGXC 071750Z 22013KT 9999 FEW025 SCT060 08/06 Q1007 RMK BLU SW (220°) 15.0mph 8°C 6°C
7/12/19 16:50 EGXC 071650Z 21010KT 9999 FEW025 BKN090 09/06 Q1008 RMK BLU SSW (210°) 11.5mph 9°C 6°C
7/12/19 15:50 EGXC 071550Z 22012KT 9999 FEW025 SCT070 OVC250 09/06 Q1009 RMK BLU SW (220°) 13.8mph 9°C 6°C
7/12/19 14:50 EGXC 071450Z 22010KT 9999 BKN025 10/07 Q1009 RMK BLU SW (220°) 11.5mph 10°C 7°C
7/12/19 13:50 EGXC 071350Z 22010KT 9999 BKN025 10/07 Q1009 RMK BLU SW (220°) 11.5mph 10°C 7°C
7/12/19 12:50 EGXC 071250Z 24012KT 9999 FEW020 BKN250 10/05 Q1010 RMK BLU WSW (240°) 13.8mph 10°C 5°C
7/12/19 11:50 EGXC 071150Z 25012KT 9999 FEW016 BKN250 10/06 Q1011 RMK BLU WSW (250°) 13.8mph 10°C 6°C
7/12/19 10:50 EGXC 071050Z 25010KT 9999 FEW040 BKN250 09/06 Q1011 RMK BLU WSW (250°) 11.5mph 9°C 6°C
7/12/19 09:50 EGXC 070950Z AUTO 24011KT 9999 // OVC038/// 08/06 Q1011 WSW (240°) 12.7mph 8°C 6°C
7/12/19 08:50 EGXC 070850Z AUTO 24011KT 9999 // BKN038/// 08/06 Q1010 WSW (240°) 12.7mph 8°C 6°C
7/12/19 07:50 EGXC 070750Z 27012KT 9999 FEW020 BKN040 09/06 Q1010 RMK BLU W (270°) 13.8mph 9°C 6°C
7/12/19 06:50 EGXC 070650Z 25011KT 9999 BKN038 08/06 Q1009 RMK BLU WSW (250°) 12.7mph 8°C 6°C
7/12/19 05:50 EGXC 070550Z 25010KT 9999 FEW030 BKN035 08/06 Q1009 RMK BLU WSW (250°) 11.5mph 8°C 6°C
7/12/19 04:50 EGXC 070450Z 25010KT 9999 FEW030 BKN040 08/06 Q1008 RMK BLU WSW (250°) 11.5mph 8°C 6°C
7/12/19 03:50 EGXC 070350Z 26010KT 9999 FEW020 BKN030 08/06 Q1008 RMK BLU W (260°) 11.5mph 8°C 6°C
7/12/19 02:50 EGXC 070250Z 26008KT 9999 FEW018 BKN030 08/06 Q1007 RMK BLU W (260°) 9.2mph 8°C 6°C
7/12/19 01:50 EGXC 070150Z 26010KT 9999 SCT035 07/06 Q1007 RMK BLU W (260°) 11.5mph 7°C 6°C
7/12/19 00:50 EGXC 070050Z AUTO 26011KT 9999 // SCT037/// 07/06 Q1006 W (260°) 12.7mph 7°C 6°C
6/12/19 23:50 EGXC 062350Z AUTO 25010KT 9999 // FEW037/// 07/06 Q1005 WSW (250°) 11.5mph 7°C 6°C
6/12/19 22:50 EGXC 062250Z 25007KT 9999 FEW035 08/06 Q1005 RMK BLU WSW (250°) 8.1mph 8°C 6°C
6/12/19 21:50 EGXC 062150Z 27013KT 9999 FEW035 09/06 Q1004 RMK BLU W (270°) 15.0mph 9°C 6°C
6/12/19 20:50 EGXC 062050Z 27012KT 9999 SCT035 09/07 Q1003 RMK BLU W (270°) 13.8mph 9°C 7°C
6/12/19 19:50 EGXC 061950Z 27015KT 9999 FEW026 BKN035 09/07 Q1002 RMK BLU W (270°) 17.3mph 9°C 7°C
6/12/19 18:50 EGXC 061850Z 26010KT 9999 BKN025 09/07 Q1000 RMK BLU W (260°) 11.5mph 9°C 7°C
6/12/19 17:50 EGXC 061750Z 28014KT 9999 FEW025 09/06 Q0999 RMK BLU W (280°) 16.1mph 9°C 6°C
6/12/19 16:50 EGXC 061650Z 27014KT 9999 FEW020CB BKN040 10/08 Q0998 RESHRA RMK BLU W (270°) 16.1mph 10°C 8°C
6/12/19 15:50 EGXC 061550Z 26012KT 9999 -SHRA SCT020CB BKN050 10/08 Q0997 TEMPO FEW020CB RMK WHT TEMPO BLU -SHRA W (260°) 13.8mph 10°C 8°C
6/12/19 15:21 EGXC 061521Z 25012KT 9999 FEW020CB SCT028 11/08 Q0997 TEMPO 25015G25KT 5000 SHRA BKN020CB RMK BLU TEMPO WHT WSW (250°) 13.8mph 11°C 8°C
6/12/19 14:50 EGXC 061450Z 25013KT 9999 BKN025 SCT080 12/08 Q0997 TEMPO 25015G25KT 6000 SHRA SCT016CB RMK BLU TEMPO WHT WSW (250°) 15.0mph 12°C 8°C
6/12/19 14:20 EGXC 061420Z 25014KT 9999 FEW018 SCT035 12/09 Q0997 TEMPO 25015G25KT 6000 SHRA SCT016TCU RMK BLU TEMPO WHT WSW (250°) 16.1mph 12°C 9°C
6/12/19 13:50 EGXC 061350Z 25017KT 9999 FEW018 SCT030 13/10 Q0996 TEMPO SCT018 RMK BLU TEMPO WHT WSW (250°) 19.6mph 13°C 10°C
6/12/19 13:24 EGXC 061324Z 24017KT 9999 FEW018 SCT060 12/10 Q0996 TEMPO SCT018 RMK BLU TEMPO WHT WSW (240°) 19.6mph 12°C 10°C